sensor_id;sensor_type;location;lat;lon;timestamp;pressure;altitude;pressure_sealevel;temperature;humidity
62237;BME280;69163;48.778;2.308;2024-03-02T00:00:37;99071.79;;;20.60;29.18
62237;BME280;69163;48.778;2.308;2024-03-02T00:03:03;99070.27;;;20.34;29.18
62237;BME280;69163;48.778;2.308;2024-03-02T00:05:27;99065.78;;;20.29;29.17
62237;BME280;69163;48.778;2.308;2024-03-02T00:07:54;99074.94;;;20.05;29.22
62237;BME280;69163;48.778;2.308;2024-03-02T00:10:22;99075.47;;;20.29;29.13
62237;BME280;69163;48.778;2.308;2024-03-02T00:12:43;99078.27;;;20.02;29.10
62237;BME280;69163;48.778;2.308;2024-03-02T00:15:24;99074.73;;;20.30;29.11
62237;BME280;69163;48.778;2.308;2024-03-02T00:17:33;99074.64;;;19.76;29.20
62237;BME280;69163;48.778;2.308;2024-03-02T00:19:58;99073.50;;;20.25;29.17
62237;BME280;69163;48.778;2.308;2024-03-02T00:22:24;99069.89;;;20.18;29.23
62237;BME280;69163;48.778;2.308;2024-03-02T00:24:49;99072.79;;;20.27;29.20
62237;BME280;69163;48.778;2.308;2024-03-02T00:27:21;99077.29;;;20.23;29.21
62237;BME280;69163;48.778;2.308;2024-03-02T00:29:40;99083.99;;;20.07;29.30
62237;BME280;69163;48.778;2.308;2024-03-02T00:32:10;99083.28;;;19.87;29.19
62237;BME280;69163;48.778;2.308;2024-03-02T00:34:30;99080.30;;;19.85;29.27
62237;BME280;69163;48.778;2.308;2024-03-02T00:36:57;99081.73;;;20.09;29.29
62237;BME280;69163;48.778;2.308;2024-03-02T00:39:20;99091.85;;;20.07;29.27
62237;BME280;69163;48.778;2.308;2024-03-02T00:41:45;99091.93;;;20.13;29.20
62237;BME280;69163;48.778;2.308;2024-03-02T00:46:40;99095.88;;;19.86;29.67
62237;BME280;69163;48.778;2.308;2024-03-02T00:49:03;99097.93;;;20.00;29.61
62237;BME280;69163;48.778;2.308;2024-03-02T00:51:29;99094.65;;;19.54;29.55
62237;BME280;69163;48.778;2.308;2024-03-02T00:53:53;99099.48;;;20.10;29.46
62237;BME280;69163;48.778;2.308;2024-03-02T00:56:17;99098.48;;;20.10;29.46
62237;BME280;69163;48.778;2.308;2024-03-02T00:58:42;99101.83;;;20.20;29.42
62237;BME280;69163;48.778;2.308;2024-03-02T01:01:08;99103.81;;;20.19;29.43
62237;BME280;69163;48.778;2.308;2024-03-02T01:03:33;99106.55;;;20.46;29.38
62237;BME280;69163;48.778;2.308;2024-03-02T01:05:58;99103.12;;;20.27;29.29
62237;BME280;69163;48.778;2.308;2024-03-02T01:08:24;99103.36;;;20.30;29.24
62237;BME280;69163;48.778;2.308;2024-03-02T01:10:49;99107.47;;;20.17;29.07
62237;BME280;69163;48.778;2.308;2024-03-02T01:13:14;99109.36;;;20.41;29.04
62237;BME280;69163;48.778;2.308;2024-03-02T01:15:39;99109.41;;;20.50;28.88
62237;BME280;69163;48.778;2.308;2024-03-02T01:18:05;99106.84;;;20.52;28.84
62237;BME280;69163;48.778;2.308;2024-03-02T01:20:30;99105.21;;;20.30;28.78
62237;BME280;69163;48.778;2.308;2024-03-02T01:22:55;99104.07;;;20.50;28.83
62237;BME280;69163;48.778;2.308;2024-03-02T01:25:20;99102.34;;;20.53;28.87
62237;BME280;69163;48.778;2.308;2024-03-02T01:27:45;99098.58;;;20.47;28.86
62237;BME280;69163;48.778;2.308;2024-03-02T01:30:11;99099.10;;;20.27;28.90
62237;BME280;69163;48.778;2.308;2024-03-02T01:32:38;99099.49;;;20.61;28.89
62237;BME280;69163;48.778;2.308;2024-03-02T01:35:02;99096.92;;;20.70;28.76
62237;BME280;69163;48.778;2.308;2024-03-02T01:37:27;99096.97;;;20.82;28.62
62237;BME280;69163;48.778;2.308;2024-03-02T01:39:52;99089.59;;;20.91;28.49
62237;BME280;69163;48.778;2.308;2024-03-02T01:42:17;99086.18;;;20.96;28.41
62237;BME280;69163;48.778;2.308;2024-03-02T01:44:42;99080.10;;;21.00;28.35
62237;BME280;69163;48.778;2.308;2024-03-02T01:47:08;99078.70;;;20.62;28.25
62237;BME280;69163;48.778;2.308;2024-03-02T01:49:33;99078.48;;;21.12;28.20
62237;BME280;69163;48.778;2.308;2024-03-02T01:51:58;99079.66;;;20.93;28.16
62237;BME280;69163;48.778;2.308;2024-03-02T01:54:24;99075.56;;;20.96;28.06
62237;BME280;69163;48.778;2.308;2024-03-02T01:56:49;99068.58;;;21.26;27.98
62237;BME280;69163;48.778;2.308;2024-03-02T01:59:14;99065.38;;;21.04;27.92
62237;BME280;69163;48.778;2.308;2024-03-02T02:01:39;99062.50;;;21.28;27.88
62237;BME280;69163;48.778;2.308;2024-03-02T02:04:04;99061.66;;;20.80;27.82
62237;BME280;69163;48.778;2.308;2024-03-02T02:06:29;99062.80;;;20.78;27.82
62237;BME280;69163;48.778;2.308;2024-03-02T02:08:55;99064.28;;;21.02;27.82
62237;BME280;69163;48.778;2.308;2024-03-02T02:11:21;99065.78;;;20.80;27.78
62237;BME280;69163;48.778;2.308;2024-03-02T02:13:45;99066.00;;;20.76;27.78
62237;BME280;69163;48.778;2.308;2024-03-02T02:16:11;99065.20;;;20.80;27.74
62237;BME280;69163;48.778;2.308;2024-03-02T02:18:36;99063.27;;;20.82;27.69
62237;BME280;69163;48.778;2.308;2024-03-02T02:21:01;99053.85;;;20.83;27.64
62237;BME280;69163;48.778;2.308;2024-03-02T02:23:27;99048.49;;;20.81;27.63
62237;BME280;69163;48.778;2.308;2024-03-02T02:25:51;99044.17;;;20.79;27.63
62237;BME280;69163;48.778;2.308;2024-03-02T02:28:17;99045.96;;;20.99;27.64
62237;BME280;69163;48.778;2.308;2024-03-02T02:30:41;99045.67;;;21.03;27.60
62237;BME280;69163;48.778;2.308;2024-03-02T02:33:07;99042.25;;;20.76;27.60
62237;BME280;69163;48.778;2.308;2024-03-02T02:35:32;99036.72;;;21.02;27.57
62237;BME280;69163;48.778;2.308;2024-03-02T02:37:58;99034.81;;;20.78;27.50
62237;BME280;69163;48.778;2.308;2024-03-02T02:40:23;99036.93;;;21.03;27.50
62237;BME280;69163;48.778;2.308;2024-03-02T02:42:48;99030.09;;;20.75;27.49
62237;BME280;69163;48.778;2.308;2024-03-02T02:45:13;99025.32;;;20.74;27.49
62237;BME280;69163;48.778;2.308;2024-03-02T02:47:42;99020.90;;;20.98;27.47
62237;BME280;69163;48.778;2.308;2024-03-02T02:50:06;99017.36;;;20.72;27.47
62237;BME280;69163;48.778;2.308;2024-03-02T02:52:32;99017.52;;;20.71;27.47
62237;BME280;69163;48.778;2.308;2024-03-02T02:54:54;99012.10;;;20.68;27.49
62237;BME280;69163;48.778;2.308;2024-03-02T02:57:19;99011.34;;;20.70;27.45
62237;BME280;69163;48.778;2.308;2024-03-02T02:59:45;99012.49;;;21.16;27.45
62237;BME280;69163;48.778;2.308;2024-03-02T03:02:10;99006.49;;;21.18;27.40
62237;BME280;69163;48.778;2.308;2024-03-02T03:04:36;99006.01;;;20.70;27.38
62237;BME280;69163;48.778;2.308;2024-03-02T03:07:00;99003.63;;;20.66;27.41
62237;BME280;69163;48.778;2.308;2024-03-02T03:09:25;99005.47;;;20.66;27.39
62237;BME280;69163;48.778;2.308;2024-03-02T03:11:52;99002.73;;;21.10;27.42
62237;BME280;69163;48.778;2.308;2024-03-02T03:14:16;98999.94;;;21.08;27.44
62237;BME280;69163;48.778;2.308;2024-03-02T03:16:41;98998.09;;;21.06;27.44
62237;BME280;69163;48.778;2.308;2024-03-02T03:19:07;98997.77;;;20.80;27.43
62237;BME280;69163;48.778;2.308;2024-03-02T03:21:32;98992.41;;;21.04;27.42
62237;BME280;69163;48.778;2.308;2024-03-02T03:23:57;98992.12;;;21.02;27.42
62237;BME280;69163;48.778;2.308;2024-03-02T03:26:23;98996.06;;;21.04;27.38
62237;BME280;69163;48.778;2.308;2024-03-02T03:28:47;98995.13;;;20.77;27.38
62237;BME280;69163;48.778;2.308;2024-03-02T03:31:13;98993.62;;;20.75;27.41
62237;BME280;69163;48.778;2.308;2024-03-02T03:33:38;99000.63;;;20.98;27.44
62237;BME280;69163;48.778;2.308;2024-03-02T03:36:04;98999.07;;;20.74;27.43
62237;BME280;69163;48.778;2.308;2024-03-02T03:38:29;98994.76;;;20.47;27.49
62237;BME280;69163;48.778;2.308;2024-03-02T03:40:54;98986.73;;;20.69;27.52
62237;BME280;69163;48.778;2.308;2024-03-02T03:43:19;98988.40;;;20.45;27.56
62237;BME280;69163;48.778;2.308;2024-03-02T03:45:44;98990.79;;;20.47;27.69
62237;BME280;69163;48.778;2.308;2024-03-02T03:48:10;98996.65;;;20.45;27.61
62237;BME280;69163;48.778;2.308;2024-03-02T03:50:35;98986.35;;;20.43;27.66
62237;BME280;69163;48.778;2.308;2024-03-02T03:52:59;98992.33;;;20.42;27.69
62237;BME280;69163;48.778;2.308;2024-03-02T03:55:25;98993.32;;;20.40;27.69
62237;BME280;69163;48.778;2.308;2024-03-02T03:57:50;98997.85;;;20.83;27.74
62237;BME280;69163;48.778;2.308;2024-03-02T04:00:16;98997.33;;;20.81;27.75
62237;BME280;69163;48.778;2.308;2024-03-02T04:02:40;98993.96;;;20.84;27.73
62237;BME280;69163;48.778;2.308;2024-03-02T04:05:07;98990.48;;;20.79;27.77
62237;BME280;69163;48.778;2.308;2024-03-02T04:07:31;98994.19;;;20.35;27.73
62237;BME280;69163;48.778;2.308;2024-03-02T04:09:56;98992.06;;;20.36;27.71
62237;BME280;69163;48.778;2.308;2024-03-02T04:12:23;98993.52;;;20.80;27.75
62237;BME280;69163;48.778;2.308;2024-03-02T04:14:46;98990.86;;;20.58;27.73
62237;BME280;69163;48.778;2.308;2024-03-02T04:17:12;98988.12;;;20.82;27.72
62237;BME280;69163;48.778;2.308;2024-03-02T04:19:38;98993.20;;;20.29;27.76
62237;BME280;69163;48.778;2.308;2024-03-02T04:22:03;98996.56;;;20.78;27.74
62237;BME280;69163;48.778;2.308;2024-03-02T04:24:28;98994.61;;;20.34;27.71
62237;BME280;69163;48.778;2.308;2024-03-02T04:26:53;98996.13;;;20.78;27.71
62237;BME280;69163;48.778;2.308;2024-03-02T04:29:19;98997.21;;;20.78;27.73
62237;BME280;69163;48.778;2.308;2024-03-02T04:31:44;99000.07;;;20.53;27.72
62237;BME280;69163;48.778;2.308;2024-03-02T04:34:08;98996.33;;;20.27;27.74
62237;BME280;69163;48.778;2.308;2024-03-02T04:36:35;98992.07;;;20.26;27.75
62237;BME280;69163;48.778;2.308;2024-03-02T04:39:00;98987.79;;;20.70;27.78
62237;BME280;69163;48.778;2.308;2024-03-02T04:41:25;98984.09;;;20.44;27.78
62237;BME280;69163;48.778;2.308;2024-03-02T04:43:50;98985.34;;;20.47;27.77
62237;BME280;69163;48.778;2.308;2024-03-02T04:46:15;98990.00;;;20.46;27.74
62237;BME280;69163;48.778;2.308;2024-03-02T04:48:41;98986.13;;;20.22;27.75
62237;BME280;69163;48.778;2.308;2024-03-02T04:51:06;98999.31;;;20.71;27.72
62237;BME280;69163;48.778;2.308;2024-03-02T04:53:31;98995.11;;;20.18;27.68
62237;BME280;69163;48.778;2.308;2024-03-02T04:55:56;98989.29;;;20.16;27.73
62237;BME280;69163;48.778;2.308;2024-03-02T04:58:21;98982.58;;;20.38;27.77
62237;BME280;69163;48.778;2.308;2024-03-02T05:00:47;98981.86;;;20.64;27.78
62237;BME280;69163;48.778;2.308;2024-03-02T05:03:12;98983.03;;;20.65;27.95
62237;BME280;69163;48.778;2.308;2024-03-02T05:05:37;98983.65;;;20.40;28.84
62237;BME280;69163;48.778;2.308;2024-03-02T05:08:03;98985.78;;;20.39;29.26
62237;BME280;69163;48.778;2.308;2024-03-02T05:10:27;98983.02;;;20.14;29.34
62237;BME280;69163;48.778;2.308;2024-03-02T05:12:53;98978.19;;;20.60;29.70
62237;BME280;69163;48.778;2.308;2024-03-02T05:15:18;98973.50;;;20.62;29.95
62237;BME280;69163;48.778;2.308;2024-03-02T05:17:43;98967.89;;;20.60;30.20
62237;BME280;69163;48.778;2.308;2024-03-02T05:20:09;98964.15;;;20.60;30.44
62237;BME280;69163;48.778;2.308;2024-03-02T05:22:34;98957.01;;;20.63;30.48
62237;BME280;69163;48.778;2.308;2024-03-02T05:24:59;98953.38;;;20.39;30.31
62237;BME280;69163;48.778;2.308;2024-03-02T05:27:25;98947.92;;;20.38;30.37
62237;BME280;69163;48.778;2.308;2024-03-02T05:29:50;98939.82;;;20.63;30.27
62237;BME280;69163;48.778;2.308;2024-03-02T05:32:15;98946.00;;;20.12;30.29
62237;BME280;69163;48.778;2.308;2024-03-02T05:34:40;98949.48;;;20.13;30.23
62237;BME280;69163;48.778;2.308;2024-03-02T05:37:05;98948.38;;;20.59;30.15
62237;BME280;69163;48.778;2.308;2024-03-02T05:39:31;98944.41;;;20.36;30.15
62237;BME280;69163;48.778;2.308;2024-03-02T05:41:56;98939.47;;;20.58;30.01
62237;BME280;69163;48.778;2.308;2024-03-02T05:44:21;98939.66;;;20.11;29.93
62237;BME280;69163;48.778;2.308;2024-03-02T05:46:46;98943.01;;;20.59;29.93
62237;BME280;69163;48.778;2.308;2024-03-02T05:49:12;98941.82;;;20.11;29.83
62237;BME280;69163;48.778;2.308;2024-03-02T05:51:37;98934.29;;;20.61;29.81
62237;BME280;69163;48.778;2.308;2024-03-02T05:54:02;98934.99;;;20.36;29.74
62237;BME280;69163;48.778;2.308;2024-03-02T05:56:27;98939.38;;;20.12;29.70
62237;BME280;69163;48.778;2.308;2024-03-02T05:58:53;98943.07;;;20.59;29.67
62237;BME280;69163;48.778;2.308;2024-03-02T06:01:18;98934.62;;;20.63;29.55
62237;BME280;69163;48.778;2.308;2024-03-02T06:03:43;98934.45;;;20.60;29.51
62237;BME280;69163;48.778;2.308;2024-03-02T06:06:08;98934.21;;;20.34;29.46
62237;BME280;69163;48.778;2.308;2024-03-02T06:08:34;98938.58;;;20.09;29.42
62237;BME280;69163;48.778;2.308;2024-03-02T06:10:59;98937.93;;;20.08;29.40
62237;BME280;69163;48.778;2.308;2024-03-02T06:13:25;98940.05;;;20.32;29.35
62237;BME280;69163;48.778;2.308;2024-03-02T06:15:49;98938.23;;;20.58;29.31
62237;BME280;69163;48.778;2.308;2024-03-02T06:18:15;98935.24;;;20.81;29.31
62237;BME280;69163;48.778;2.308;2024-03-02T06:20:40;98938.06;;;20.58;29.23
62237;BME280;69163;48.778;2.308;2024-03-02T06:23:05;98934.06;;;20.57;29.20
62237;BME280;69163;48.778;2.308;2024-03-02T06:25:30;98924.76;;;20.33;29.15
62237;BME280;69163;48.778;2.308;2024-03-02T06:27:56;98922.98;;;20.56;29.13
62237;BME280;69163;48.778;2.308;2024-03-02T06:30:21;98919.41;;;20.56;29.09
62237;BME280;69163;48.778;2.308;2024-03-02T06:32:46;98914.87;;;20.79;29.07
62237;BME280;69163;48.778;2.308;2024-03-02T06:35:11;98926.63;;;20.54;29.09
62237;BME280;69163;48.778;2.308;2024-03-02T06:37:38;98925.71;;;20.52;29.07
62237;BME280;69163;48.778;2.308;2024-03-02T06:40:02;98918.02;;;20.07;29.00
62237;BME280;69163;48.778;2.308;2024-03-02T06:42:27;98917.03;;;20.30;28.99
62237;BME280;69163;48.778;2.308;2024-03-02T06:44:52;98914.45;;;20.06;28.95
62237;BME280;69163;48.778;2.308;2024-03-02T06:47:17;98912.61;;;20.05;28.95
62237;BME280;69163;48.778;2.308;2024-03-02T06:49:43;98916.53;;;20.30;28.91
62237;BME280;69163;48.778;2.308;2024-03-02T06:52:08;98923.09;;;20.53;28.93
62237;BME280;69163;48.778;2.308;2024-03-02T06:54:33;98927.03;;;20.28;28.91
62237;BME280;69163;48.778;2.308;2024-03-02T06:56:59;98926.73;;;20.53;28.87
62237;BME280;69163;48.778;2.308;2024-03-02T06:59:25;98931.90;;;20.30;28.83
62237;BME280;69163;48.778;2.308;2024-03-02T07:01:50;98935.45;;;20.06;28.81
62237;BME280;69163;48.778;2.308;2024-03-02T07:04:14;98931.09;;;20.57;28.76
62237;BME280;69163;48.778;2.308;2024-03-02T07:06:40;98922.43;;;20.31;28.75
62237;BME280;69163;48.778;2.308;2024-03-02T07:09:04;98922.62;;;20.33;28.73
62237;BME280;69163;48.778;2.308;2024-03-02T07:11:30;98917.02;;;20.54;28.72
62237;BME280;69163;48.778;2.308;2024-03-02T07:13:55;98919.37;;;20.55;28.69
62237;BME280;69163;48.778;2.308;2024-03-02T07:16:21;98914.04;;;20.53;28.69
62237;BME280;69163;48.778;2.308;2024-03-02T07:18:46;98914.84;;;20.29;28.66
62237;BME280;69163;48.778;2.308;2024-03-02T07:21:11;98914.18;;;20.28;28.65
62237;BME280;69163;48.778;2.308;2024-03-02T07:23:37;98915.71;;;20.54;28.60
62237;BME280;69163;48.778;2.308;2024-03-02T07:26:04;98915.57;;;20.54;28.59
62237;BME280;69163;48.778;2.308;2024-03-02T07:28:27;98915.09;;;20.57;28.55
62237;BME280;69163;48.778;2.308;2024-03-02T07:30:58;98916.28;;;20.07;28.53
62237;BME280;69163;48.778;2.308;2024-03-02T07:33:17;98916.20;;;20.51;28.55
62237;BME280;69163;48.778;2.308;2024-03-02T07:35:43;98916.60;;;20.53;28.51
62237;BME280;69163;48.778;2.308;2024-03-02T07:38:08;98916.42;;;20.04;28.51
62237;BME280;69163;48.778;2.308;2024-03-02T07:40:33;98911.33;;;20.03;28.48
62237;BME280;69163;48.778;2.308;2024-03-02T07:42:59;98908.54;;;20.01;28.50
62237;BME280;69163;48.778;2.308;2024-03-02T07:45:24;98904.63;;;20.50;28.45
62237;BME280;69163;48.778;2.308;2024-03-02T07:47:48;98902.22;;;20.02;28.46
62237;BME280;69163;48.778;2.308;2024-03-02T07:50:14;98904.26;;;20.27;28.45
62237;BME280;69163;48.778;2.308;2024-03-02T07:52:39;98908.19;;;20.02;28.44
62237;BME280;69163;48.778;2.308;2024-03-02T07:55:05;98908.08;;;20.48;28.43
62237;BME280;69163;48.778;2.308;2024-03-02T07:57:29;98905.92;;;20.48;28.41
62237;BME280;69163;48.778;2.308;2024-03-02T07:59:55;98910.88;;;20.48;28.40
62237;BME280;69163;48.778;2.308;2024-03-02T08:02:20;98913.42;;;20.47;28.39
62237;BME280;69163;48.778;2.308;2024-03-02T08:04:46;98917.75;;;20.21;28.41
62237;BME280;69163;48.778;2.308;2024-03-02T08:07:11;98917.51;;;20.49;28.37
62237;BME280;69163;48.778;2.308;2024-03-02T08:09:36;98915.48;;;20.22;28.37
62237;BME280;69163;48.778;2.308;2024-03-02T08:12:02;98912.03;;;20.24;28.35
62237;BME280;69163;48.778;2.308;2024-03-02T08:14:28;98907.53;;;20.00;28.35
62237;BME280;69163;48.778;2.308;2024-03-02T08:16:52;98909.56;;;20.22;28.36
62237;BME280;69163;48.778;2.308;2024-03-02T08:19:18;98908.03;;;20.44;28.36
62237;BME280;69163;48.778;2.308;2024-03-02T08:21:43;98903.08;;;20.45;28.33
62237;BME280;69163;48.778;2.308;2024-03-02T08:24:08;98904.10;;;20.43;28.34
62237;BME280;69163;48.778;2.308;2024-03-02T08:26:34;98906.60;;;20.69;28.31
62237;BME280;69163;48.778;2.308;2024-03-02T08:28:59;98909.62;;;20.43;28.32
62237;BME280;69163;48.778;2.308;2024-03-02T08:31:24;98903.76;;;20.44;28.30
62237;BME280;69163;48.778;2.308;2024-03-02T08:33:49;98902.49;;;20.67;28.30
62237;BME280;69163;48.778;2.308;2024-03-02T08:36:15;98908.56;;;20.42;28.31
62237;BME280;69163;48.778;2.308;2024-03-02T08:38:41;98908.24;;;20.44;28.28
62237;BME280;69163;48.778;2.308;2024-03-02T08:41:05;98906.84;;;20.43;28.27
62237;BME280;69163;48.778;2.308;2024-03-02T08:43:30;98911.16;;;20.65;28.28
62237;BME280;69163;48.778;2.308;2024-03-02T08:45:55;98909.71;;;20.44;28.25
62237;BME280;69163;48.778;2.308;2024-03-02T08:48:21;98911.59;;;20.41;28.28
62237;BME280;69163;48.778;2.308;2024-03-02T08:50:46;98908.62;;;20.41;28.26
62237;BME280;69163;48.778;2.308;2024-03-02T08:53:11;98910.97;;;20.16;28.25
62237;BME280;69163;48.778;2.308;2024-03-02T08:55:36;98911.39;;;20.42;28.22
62237;BME280;69163;48.778;2.308;2024-03-02T08:58:02;98910.27;;;20.16;28.24
62237;BME280;69163;48.778;2.308;2024-03-02T09:00:28;98911.91;;;19.93;28.22
62237;BME280;69163;48.778;2.308;2024-03-02T09:02:53;98913.68;;;20.39;28.23
62237;BME280;69163;48.778;2.308;2024-03-02T09:05:17;98910.96;;;20.15;28.22
62237;BME280;69163;48.778;2.308;2024-03-02T09:07:42;98910.89;;;20.14;28.22
62237;BME280;69163;48.778;2.308;2024-03-02T09:10:09;98909.92;;;20.41;28.21
62237;BME280;69163;48.778;2.308;2024-03-02T09:12:33;98913.29;;;20.40;28.21
62237;BME280;69163;48.778;2.308;2024-03-02T09:14:59;98909.53;;;20.16;28.21
62237;BME280;69163;48.778;2.308;2024-03-02T09:17:24;98908.13;;;20.17;28.18
62237;BME280;69163;48.778;2.308;2024-03-02T09:19:48;98903.93;;;19.93;28.17
62237;BME280;69163;48.778;2.308;2024-03-02T09:22:14;98908.64;;;20.41;28.17
62237;BME280;69163;48.778;2.308;2024-03-02T09:24:39;98904.93;;;20.40;28.17
62237;BME280;69163;48.778;2.308;2024-03-02T09:27:05;98906.36;;;20.39;28.17
62237;BME280;69163;48.778;2.308;2024-03-02T09:29:30;98901.66;;;20.40;28.15
62237;BME280;69163;48.778;2.308;2024-03-02T09:31:55;98907.07;;;20.17;28.15
62237;BME280;69163;48.778;2.308;2024-03-02T09:34:20;98897.78;;;20.16;28.14
62237;BME280;69163;48.778;2.308;2024-03-02T09:36:46;98892.80;;;20.15;28.15
62237;BME280;69163;48.778;2.308;2024-03-02T09:39:11;98880.78;;;20.14;28.15
62237;BME280;69163;48.778;2.308;2024-03-02T09:41:36;98883.10;;;19.90;28.16
62237;BME280;69163;48.778;2.308;2024-03-02T09:44:01;98878.31;;;20.34;28.17
62237;BME280;69163;48.778;2.308;2024-03-02T09:46:26;98877.99;;;20.11;28.17
62237;BME280;69163;48.778;2.308;2024-03-02T09:48:52;98875.47;;;20.36;28.15
62237;BME280;69163;48.778;2.308;2024-03-02T09:51:17;98875.04;;;20.37;28.15
62237;BME280;69163;48.778;2.308;2024-03-02T09:53:42;98862.51;;;20.12;28.14
62237;BME280;69163;48.778;2.308;2024-03-02T09:56:07;98859.55;;;20.38;28.11
62237;BME280;69163;48.778;2.308;2024-03-02T09:58:33;98858.67;;;20.38;28.11
62237;BME280;69163;48.778;2.308;2024-03-02T10:00:58;98848.88;;;20.38;28.11
62237;BME280;69163;48.778;2.308;2024-03-02T10:03:25;98848.92;;;20.36;28.12
62237;BME280;69163;48.778;2.308;2024-03-02T10:05:48;98847.05;;;20.36;28.12
62237;BME280;69163;48.778;2.308;2024-03-02T10:08:14;98847.15;;;20.38;28.11
62237;BME280;69163;48.778;2.308;2024-03-02T10:10:40;98841.72;;;20.35;28.14
62237;BME280;69163;48.778;2.308;2024-03-02T10:13:05;98840.40;;;20.37;28.14
62237;BME280;69163;48.778;2.308;2024-03-02T10:15:30;98845.34;;;20.35;28.16
62237;BME280;69163;48.778;2.308;2024-03-02T10:17:55;98842.20;;;20.33;28.17
62237;BME280;69163;48.778;2.308;2024-03-02T10:20:24;98837.98;;;20.35;28.14
62237;BME280;69163;48.778;2.308;2024-03-02T10:22:45;98839.39;;;20.13;28.12
62237;BME280;69163;48.778;2.308;2024-03-02T10:27:36;98835.93;;;19.87;28.16
62237;BME280;69163;48.778;2.308;2024-03-02T10:30:04;98838.15;;;20.11;28.16
62237;BME280;69163;48.778;2.308;2024-03-02T10:32:27;98840.98;;;20.06;28.16
62237;BME280;69163;48.778;2.308;2024-03-02T10:34:52;98841.04;;;20.73;29.04
62237;BME280;69163;48.778;2.308;2024-03-02T10:37:17;98842.96;;;20.16;29.26
62237;BME280;69163;48.778;2.308;2024-03-02T10:39:43;98843.79;;;20.10;29.51
62237;BME280;69163;48.778;2.308;2024-03-02T10:42:08;98825.07;;;20.35;29.58
62237;BME280;69163;48.778;2.308;2024-03-02T10:44:33;98826.70;;;20.16;29.63
62237;BME280;69163;48.778;2.308;2024-03-02T10:47:00;98828.39;;;20.41;29.73
62237;BME280;69163;48.778;2.308;2024-03-02T10:49:24;98830.08;;;20.19;29.71
62237;BME280;69163;48.778;2.308;2024-03-02T10:51:48;98833.08;;;19.88;29.94
62237;BME280;69163;48.778;2.308;2024-03-02T10:54:13;98828.51;;;20.26;29.95
62237;BME280;69163;48.778;2.308;2024-03-02T10:56:40;98828.62;;;20.05;30.17
62237;BME280;69163;48.778;2.308;2024-03-02T10:59:12;98835.56;;;20.03;30.37
62237;BME280;69163;48.778;2.308;2024-03-02T11:01:31;98829.68;;;19.98;30.47
62237;BME280;69163;48.778;2.308;2024-03-02T11:03:54;98833.20;;;19.70;30.87
62237;BME280;69163;48.778;2.308;2024-03-02T11:06:20;98838.57;;;20.04;31.30
62237;BME280;69163;48.778;2.308;2024-03-02T11:08:48;98833.78;;;20.06;30.79
62237;BME280;69163;48.778;2.308;2024-03-02T11:11:15;98834.31;;;20.44;30.73
62237;BME280;69163;48.778;2.308;2024-03-02T11:13:37;98834.55;;;20.30;30.56
62237;BME280;69163;48.778;2.308;2024-03-02T11:16:06;98825.48;;;20.40;30.43
62237;BME280;69163;48.778;2.308;2024-03-02T11:18:27;98822.19;;;20.19;30.37
62237;BME280;69163;48.778;2.308;2024-03-02T11:20:52;98824.30;;;20.23;30.32
62237;BME280;69163;48.778;2.308;2024-03-02T11:23:17;98831.41;;;20.05;30.25
62237;BME280;69163;48.778;2.308;2024-03-02T11:25:42;98826.78;;;20.57;30.13
62237;BME280;69163;48.778;2.308;2024-03-02T11:28:08;98829.19;;;20.49;30.24
62237;BME280;69163;48.778;2.308;2024-03-02T11:30:48;98827.18;;;20.05;30.19
62237;BME280;69163;48.778;2.308;2024-03-02T11:32:57;98819.71;;;20.32;30.17
62237;BME280;69163;48.778;2.308;2024-03-02T11:35:25;98815.96;;;20.56;30.11
62237;BME280;69163;48.778;2.308;2024-03-02T11:37:48;98817.38;;;20.29;30.13
62237;BME280;69163;48.778;2.308;2024-03-02T11:40:15;98813.22;;;20.52;30.08
62237;BME280;69163;48.778;2.308;2024-03-02T11:42:39;98816.43;;;20.50;30.12
62237;BME280;69163;48.778;2.308;2024-03-02T11:45:05;98811.34;;;20.01;30.06
62237;BME280;69163;48.778;2.308;2024-03-02T11:47:31;98808.95;;;20.47;30.06
62237;BME280;69163;48.778;2.308;2024-03-02T11:49:54;98799.46;;;20.50;30.04
62237;BME280;69163;48.778;2.308;2024-03-02T11:52:20;98804.37;;;20.51;30.05
62237;BME280;69163;48.778;2.308;2024-03-02T11:54:46;98800.70;;;20.53;29.98
62237;BME280;69163;48.778;2.308;2024-03-02T11:57:10;98798.69;;;20.53;29.98
62237;BME280;69163;48.778;2.308;2024-03-02T11:59:35;98806.18;;;20.26;30.00
62237;BME280;69163;48.778;2.308;2024-03-02T12:02:01;98801.12;;;20.48;29.98
62237;BME280;69163;48.778;2.308;2024-03-02T12:04:27;98793.29;;;20.28;29.92
62237;BME280;69163;48.778;2.308;2024-03-02T12:06:55;98795.09;;;20.50;29.94
62237;BME280;69163;48.778;2.308;2024-03-02T12:09:17;98796.43;;;20.51;29.87
62237;BME280;69163;48.778;2.308;2024-03-02T12:11:41;98796.74;;;20.04;29.87
62237;BME280;69163;48.778;2.308;2024-03-02T12:14:11;98791.39;;;20.51;29.86
62237;BME280;69163;48.778;2.308;2024-03-02T12:16:32;98788.26;;;20.52;29.87
62237;BME280;69163;48.778;2.308;2024-03-02T12:18:57;98789.97;;;20.52;29.85
62237;BME280;69163;48.778;2.308;2024-03-02T12:21:23;98789.04;;;20.23;29.90
62237;BME280;69163;48.778;2.308;2024-03-02T12:23:48;98785.61;;;20.47;29.96
62237;BME280;69163;48.778;2.308;2024-03-02T12:26:13;98785.63;;;20.55;29.88
62237;BME280;69163;48.778;2.308;2024-03-02T12:28:41;98786.02;;;20.50;29.92
62237;BME280;69163;48.778;2.308;2024-03-02T12:31:04;98781.22;;;20.48;29.92
62237;BME280;69163;48.778;2.308;2024-03-02T12:33:29;98779.23;;;20.02;29.83
62237;BME280;69163;48.778;2.308;2024-03-02T12:35:54;98776.48;;;20.49;29.81
62237;BME280;69163;48.778;2.308;2024-03-02T12:38:19;98774.88;;;20.48;29.74
62237;BME280;69163;48.778;2.308;2024-03-02T12:40:47;98770.61;;;20.52;29.69
62237;BME280;69163;48.778;2.308;2024-03-02T12:43:10;98769.55;;;20.01;29.74
62237;BME280;69163;48.778;2.308;2024-03-02T12:45:35;98773.06;;;20.50;29.71
62237;BME280;69163;48.778;2.308;2024-03-02T12:48:00;98771.20;;;20.39;29.81
62237;BME280;69163;48.778;2.308;2024-03-02T12:50:26;98767.90;;;19.95;29.86
62237;BME280;69163;48.778;2.308;2024-03-02T12:52:52;98768.04;;;20.43;29.87